Time;durP1;ratioP1;P1;durP2;ratioP2;P2;SDS_P1;SDS_P2;PMS_P1;PMS_P2;Temp;Humidity;BMP_temperature;BMP_pressure;BME280_temperature;BME280_humidity;BME280_pressure;Samples;Min_cycle;Max_cycle;Signal;HPM_P1;HPM_P2
2023/02/03 00:00:18;;;;;;;10.80;6.93;;;-0.10;99.90;;;;;;4972617;28;20247;-87
2023/02/03 00:02:45;;;;;;;10.77;7.65;;;-0.20;99.90;;;;;;4988503;28;20209;-88
2023/02/03 00:05:14;;;;;;;12.82;7.70;;;-0.10;99.90;;;;;;4987091;28;20201;-88
2023/02/03 00:07:43;;;;;;;10.00;6.50;;;0.00;99.90;;;;;;4973431;28;20219;-84
2023/02/03 00:10:12;;;;;;;11.02;5.90;;;0.00;99.90;;;;;;4980706;28;20293;-84
2023/02/03 00:12:39;;;;;;;11.68;7.50;;;0.10;99.90;;;;;;4982798;28;20214;-85
2023/02/03 00:15:07;;;;;;;10.45;7.63;;;0.10;99.90;;;;;;4979225;28;20255;-87
2023/02/03 00:17:36;;;;;;;9.63;6.13;;;0.20;99.90;;;;;;4973109;28;20198;-88
2023/02/03 00:20:03;;;;;;;10.52;7.18;;;0.10;99.90;;;;;;4978692;28;20199;-86
2023/02/03 00:22:31;;;;;;;15.95;7.43;;;0.20;99.90;;;;;;4979706;28;20188;-88
2023/02/03 00:24:59;;;;;;;15.25;9.40;;;0.20;99.90;;;;;;4979026;28;20195;-89
2023/02/03 00:27:28;;;;;;;14.98;7.93;;;0.50;99.90;;;;;;4978543;28;20254;-89
2023/02/03 00:29:55;;;;;;;15.85;9.52;;;0.30;99.90;;;;;;4978632;28;20195;-89
2023/02/03 00:32:27;;;;;;;12.05;8.20;;;0.20;99.90;;;;;;5043456;23;20253;-92
2023/02/03 00:34:56;;;;;;;14.20;8.02;;;0.50;99.90;;;;;;4983879;28;20265;-90
2023/02/03 00:37:24;;;;;;;13.45;7.95;;;0.20;99.90;;;;;;4982427;28;20262;-90
2023/02/03 00:39:53;;;;;;;14.10;9.35;;;0.20;99.90;;;;;;4981086;28;20195;-89
2023/02/03 00:42:21;;;;;;;21.67;9.32;;;0.30;99.90;;;;;;4981222;28;20194;-90
2023/02/03 00:44:52;;;;;;;16.52;9.30;;;0.40;99.90;;;;;;4981313;28;20232;-89
2023/02/03 00:47:20;;;;;;;9.90;8.07;;;0.40;99.90;;;;;;4981870;28;20253;-91
2023/02/03 00:49:49;;;;;;;12.38;9.27;;;0.40;99.90;;;;;;4981062;28;20227;-89
2023/02/03 00:52:16;;;;;;;13.07;8.52;;;0.50;99.90;;;;;;4975931;28;20203;-85
2023/02/03 00:54:44;;;;;;;17.85;10.55;;;0.50;99.90;;;;;;4972197;28;20194;-86
2023/02/03 00:57:12;;;;;;;15.73;10.57;;;0.40;99.90;;;;;;4976197;28;20207;-84
2023/02/03 00:59:40;;;;;;;16.20;12.20;;;0.30;99.90;;;;;;4956764;29;20210;-84
2023/02/03 01:02:08;;;;;;;15.65;10.32;;;0.10;99.90;;;;;;4971684;28;20198;-85
2023/02/03 01:04:35;;;;;;;16.52;12.00;;;0.30;99.90;;;;;;4972030;28;20203;-84
2023/02/03 01:07:02;;;;;;;17.02;10.88;;;0.40;99.90;;;;;;4981150;28;20214;-84
2023/02/03 01:09:33;;;;;;;18.05;10.77;;;0.40;99.90;;;;;;4990364;28;20206;-83
2023/02/03 01:12:06;;;;;;;20.25;12.05;;;0.30;99.90;;;;;;4980775;28;20230;-84
2023/02/03 01:14:33;;;;;;;21.02;11.45;;;0.30;99.90;;;;;;4977012;28;20244;-82
2023/02/03 01:17:06;;;;;;;22.45;11.68;;;0.20;99.90;;;;;;4976534;29;20239;-83
2023/02/03 01:19:34;;;;;;;16.75;11.75;;;0.00;99.90;;;;;;4974934;28;20238;-83
2023/02/03 01:22:01;;;;;;;20.92;11.57;;;-0.10;99.90;;;;;;4974674;28;20433;-82
2023/02/03 01:24:29;;;;;;;19.33;12.57;;;-0.20;99.90;;;;;;4967568;28;20479;-83
2023/02/03 01:26:56;;;;;;;18.55;12.02;;;0.00;99.90;;;;;;4967702;29;20295;-83
2023/02/03 01:29:25;;;;;;;15.00;11.13;;;-0.10;99.90;;;;;;4966819;28;20256;-83
2023/02/03 01:31:52;;;;;;;14.25;10.35;;;-0.10;99.90;;;;;;4966680;28;20265;-86
2023/02/03 01:34:21;;;;;;;22.75;11.65;;;-0.10;99.90;;;;;;4972140;29;20267;-87
2023/02/03 01:36:48;;;;;;;17.35;11.73;;;0.10;99.90;;;;;;4977064;28;20206;-85
2023/02/03 01:39:16;;;;;;;27.92;15.52;;;0.20;99.90;;;;;;4963086;28;20214;-86
2023/02/03 01:41:45;;;;;;;18.33;10.07;;;0.30;99.90;;;;;;4976542;28;20223;-86
2023/02/03 01:44:37;;;;;;;21.50;11.23;;;0.10;99.90;;;;;;4974009;28;20199;-84
2023/02/03 01:47:31;;;;;;;17.08;11.95;;;0.20;99.90;;;;;;4979013;28;20226;-84
2023/02/03 01:49:58;;;;;;;20.98;11.50;;;0.20;99.90;;;;;;4960457;28;20243;-83
2023/02/03 01:52:26;;;;;;;16.00;9.70;;;0.10;99.90;;;;;;4977756;28;20221;-87
2023/02/03 01:54:57;;;;;;;17.17;10.88;;;-0.10;99.90;;;;;;4974040;28;20247;-82
2023/02/03 01:57:32;;;;;;;22.25;11.05;;;-0.20;99.90;;;;;;4976365;28;20254;-82
2023/02/03 02:00:04;;;;;;;14.60;9.70;;;-0.20;99.90;;;;;;4969192;28;20205;-86
2023/02/03 02:02:35;;;;;;;15.98;9.88;;;-0.10;99.90;;;;;;4967902;29;20215;-85
2023/02/03 02:05:28;;;;;;;19.42;10.60;;;0.00;99.90;;;;;;4969657;29;20256;-86
2023/02/03 02:07:58;;;;;;;17.23;8.70;;;0.00;99.90;;;;;;4956934;29;20235;-83
2023/02/03 02:10:27;;;;;;;18.33;10.38;;;0.00;99.90;;;;;;4967882;29;20219;-85
2023/02/03 02:12:56;;;;;;;15.68;9.05;;;0.10;99.90;;;;;;4950246;29;20203;-86
2023/02/03 02:15:48;;;;;;;14.43;9.70;;;0.00;99.90;;;;;;4954598;29;20207;-84
2023/02/03 02:18:24;;;;;;;14.35;8.65;;;0.00;99.90;;;;;;4973174;28;20359;-85
2023/02/03 02:21:23;;;;;;;15.50;10.18;;;0.10;99.90;;;;;;4967170;28;20194;-86
2023/02/03 02:24:26;;;;;;;15.85;10.40;;;0.10;99.90;;;;;;4969769;28;20190;-85
2023/02/03 02:27:25;;;;;;;12.38;7.82;;;0.30;99.90;;;;;;4982093;28;20427;-82
2023/02/03 02:30:18;;;;;;;12.80;9.32;;;0.40;99.90;;;;;;4967163;28;20221;-82
2023/02/03 02:33:27;;;;;;;12.27;8.93;;;0.50;99.90;;;;;;4939233;29;20243;-83
2023/02/03 02:36:21;;;;;;;10.65;8.32;;;0.80;99.90;;;;;;4957661;28;20206;-84
2023/02/03 02:39:06;;;;;;;11.50;7.65;;;1.10;99.90;;;;;;4963095;28;20211;-83
2023/02/03 02:41:53;;;;;;;13.77;8.07;;;1.20;99.90;;;;;;4965223;28;20202;-83
2023/02/03 02:44:31;;;;;;;15.70;8.50;;;0.90;99.90;;;;;;4946755;29;20215;-83
2023/02/03 02:47:09;;;;;;;15.35;9.45;;;0.90;99.90;;;;;;4972646;28;20522;-85
2023/02/03 02:49:59;;;;;;;16.77;9.82;;;0.80;99.90;;;;;;4972819;28;20226;-83
2023/02/03 02:52:30;;;;;;;12.82;9.07;;;0.70;99.90;;;;;;4971192;28;20249;-81
2023/02/03 02:55:13;;;;;;;10.60;8.07;;;0.70;99.90;;;;;;4970408;28;20211;-83
2023/02/03 02:57:41;;;;;;;9.57;6.43;;;0.70;99.90;;;;;;4962416;28;20214;-83
2023/02/03 03:00:11;;;;;;;10.85;6.13;;;0.50;99.90;;;;;;4954918;29;20215;-85
2023/02/03 03:02:38;;;;;;;13.10;7.38;;;0.50;99.90;;;;;;4977965;28;20213;-83
2023/02/03 03:05:09;;;;;;;9.68;6.68;;;0.50;99.90;;;;;;4964659;29;20211;-83
2023/02/03 03:07:45;;;;;;;7.20;5.65;;;0.50;99.90;;;;;;4972522;28;20269;-82
2023/02/03 03:10:17;;;;;;;11.52;8.25;;;0.50;99.90;;;;;;4971333;28;20217;-84
2023/02/03 03:12:50;;;;;;;9.25;7.10;;;0.40;99.90;;;;;;4972082;28;20199;-82
2023/02/03 03:15:21;;;;;;;10.95;7.53;;;0.40;99.90;;;;;;4970805;28;20418;-83
2023/02/03 03:17:59;;;;;;;11.20;7.43;;;0.40;99.90;;;;;;4971280;28;20210;-84
2023/02/03 03:20:28;;;;;;;11.43;7.28;;;0.50;99.90;;;;;;4963424;29;20265;-85
2023/02/03 03:23:20;;;;;;;16.67;7.70;;;0.50;99.90;;;;;;4975978;28;20242;-84
2023/02/03 03:25:58;;;;;;;11.77;7.78;;;0.40;99.90;;;;;;4964401;28;20563;-84
2023/02/03 03:28:37;;;;;;;8.60;5.88;;;0.50;99.90;;;;;;4963780;29;20234;-85
2023/02/03 03:31:04;;;;;;;9.95;5.15;;;0.60;99.90;;;;;;4960498;28;20203;-83
2023/02/03 03:33:32;;;;;;;10.25;6.80;;;0.80;99.90;;;;;;4956281;29;20266;-85
2023/02/03 03:36:08;;;;;;;10.85;6.03;;;0.80;99.90;;;;;;4964222;29;20215;-86
2023/02/03 03:38:40;;;;;;;9.95;5.95;;;0.90;99.90;;;;;;4956161;28;20194;-84
2023/02/03 03:41:24;;;;;;;9.85;7.00;;;0.80;99.90;;;;;;4959036;28;20262;-84
2023/02/03 03:43:56;;;;;;;11.02;5.65;;;0.90;99.90;;;;;;4982266;28;20295;-87
2023/02/03 03:46:32;;;;;;;10.38;5.75;;;0.80;99.90;;;;;;4979036;28;20503;-87
2023/02/03 03:49:03;;;;;;;8.38;7.00;;;0.90;99.90;;;;;;4967093;28;20228;-85
2023/02/03 03:51:39;;;;;;;7.38;5.43;;;0.90;99.90;;;;;;4978945;28;20209;-83
2023/02/03 03:54:10;;;;;;;9.48;6.05;;;0.90;99.90;;;;;;4979081;28;20186;-82
2023/02/03 03:57:06;;;;;;;14.52;6.28;;;0.90;99.90;;;;;;4975049;28;20211;-86
2023/02/03 03:59:38;;;;;;;10.73;6.40;;;0.90;99.90;;;;;;4968298;28;20206;-82
2023/02/03 04:02:07;;;;;;;7.85;5.95;;;0.90;99.90;;;;;;4972618;28;20191;-82
2023/02/03 04:04:38;;;;;;;10.68;6.97;;;0.90;99.90;;;;;;4978778;28;20416;-85
2023/02/03 04:07:05;;;;;;;9.52;5.65;;;0.90;99.90;;;;;;4972126;28;20266;-84
2023/02/03 04:09:35;;;;;;;9.68;6.25;;;0.90;99.90;;;;;;4972973;28;20410;-83
2023/02/03 04:12:04;;;;;;;9.50;5.82;;;0.90;99.90;;;;;;4975763;28;20207;-83
2023/02/03 04:14:36;;;;;;;9.02;6.03;;;0.80;99.90;;;;;;4962683;28;20399;-80
2023/02/03 04:17:07;;;;;;;8.43;5.10;;;0.80;99.90;;;;;;4962724;28;20191;-82
2023/02/03 04:19:35;;;;;;;11.10;6.13;;;0.80;99.90;;;;;;4964453;28;20572;-83
2023/02/03 04:22:02;;;;;;;7.90;5.40;;;1.00;99.90;;;;;;4963868;28;20208;-85
2023/02/03 04:24:30;;;;;;;11.05;6.13;;;1.00;99.90;;;;;;4965488;28;20230;-85
2023/02/03 04:27:07;;;;;;;12.32;6.60;;;1.00;99.90;;;;;;4970061;28;20210;-87
2023/02/03 04:29:34;;;;;;;10.32;6.00;;;1.00;99.90;;;;;;4964723;28;20394;-82
2023/02/03 04:32:01;;;;;;;6.70;6.00;;;1.00;99.90;;;;;;4963127;28;20207;-85
2023/02/03 04:34:28;;;;;;;10.98;6.57;;;0.90;99.90;;;;;;4971917;28;20274;-87
2023/02/03 04:36:55;;;;;;;8.05;6.43;;;0.90;99.90;;;;;;4982870;28;20201;-87
2023/02/03 04:39:22;;;;;;;10.38;7.75;;;0.90;99.90;;;;;;4972215;28;20203;-84
2023/02/03 04:41:50;;;;;;;8.85;6.38;;;0.90;99.90;;;;;;4974334;28;20289;-83
2023/02/03 04:44:18;;;;;;;6.50;5.70;;;0.90;99.90;;;;;;4974342;28;20202;-84
2023/02/03 04:46:46;;;;;;;10.88;5.72;;;0.90;99.90;;;;;;4963693;28;20217;-84
2023/02/03 04:49:16;;;;;;;8.73;6.68;;;1.00;99.90;;;;;;4981732;28;20237;-87
2023/02/03 04:51:48;;;;;;;12.50;7.18;;;1.00;99.90;;;;;;4968425;28;20432;-82
2023/02/03 04:54:16;;;;;;;13.43;8.15;;;0.90;99.90;;;;;;4970650;28;20267;-85
2023/02/03 04:56:43;;;;;;;18.85;8.73;;;1.00;99.90;;;;;;4966140;28;20269;-87
2023/02/03 04:59:10;;;;;;;9.00;5.90;;;1.00;99.90;;;;;;4975731;28;20198;-86
2023/02/03 05:01:37;;;;;;;10.25;7.63;;;1.10;99.90;;;;;;4981391;28;20210;-87
2023/02/03 05:04:08;;;;;;;9.90;6.68;;;1.20;99.90;;;;;;4982387;28;20195;-85
2023/02/03 05:06:35;;;;;;;13.35;5.75;;;1.10;99.90;;;;;;4965017;28;20199;-85
2023/02/03 05:09:03;;;;;;;10.55;5.90;;;1.20;99.90;;;;;;4963581;29;20302;-86
2023/02/03 05:11:32;;;;;;;8.20;5.63;;;1.20;99.90;;;;;;4964130;28;20377;-86
2023/02/03 05:14:00;;;;;;;8.98;5.47;;;1.20;99.90;;;;;;4963808;29;20285;-85
2023/02/03 05:16:37;;;;;;;5.30;4.80;;;1.20;99.90;;;;;;4967881;28;20266;-84
2023/02/03 05:19:04;;;;;;;12.57;4.88;;;1.20;99.90;;;;;;4969344;28;20578;-87
2023/02/03 05:21:31;;;;;;;10.27;6.30;;;1.20;99.90;;;;;;4964200;28;20267;-85
2023/02/03 05:24:02;;;;;;;10.80;6.65;;;1.20;99.90;;;;;;4966603;29;20401;-85
2023/02/03 05:26:31;;;;;;;12.85;5.35;;;1.30;99.90;;;;;;4967148;28;20214;-82
2023/02/03 05:29:00;;;;;;;5.63;5.00;;;1.30;99.90;;;;;;4966964;28;20247;-88
2023/02/03 05:31:27;;;;;;;7.57;6.07;;;1.30;99.90;;;;;;4982374;28;20219;-85
2023/02/03 05:34:02;;;;;;;9.25;4.80;;;1.30;99.90;;;;;;4988008;28;20249;-84
2023/02/03 05:36:32;;;;;;;7.88;4.65;;;1.50;99.90;;;;;;4971001;28;20305;-85
2023/02/03 05:38:59;;;;;;;9.35;5.50;;;1.40;99.90;;;;;;4972018;28;20213;-83
2023/02/03 05:44:13;;;;;;;7.28;4.63;;;1.50;99.90;;;;;;4966342;28;20207;-85
2023/02/03 05:46:41;;;;;;;7.07;5.07;;;1.60;99.90;;;;;;4977123;28;20217;-84
2023/02/03 05:49:09;;;;;;;8.43;5.57;;;1.50;99.90;;;;;;4969278;28;20228;-85
2023/02/03 05:51:39;;;;;;;13.57;7.88;;;1.40;99.90;;;;;;4967380;28;20388;-84
2023/02/03 05:54:06;;;;;;;14.82;7.40;;;1.40;99.90;;;;;;4979908;28;20199;-87
2023/02/03 05:56:38;;;;;;;6.53;5.85;;;1.50;99.90;;;;;;4987787;28;20284;-87
2023/02/03 05:59:14;;;;;;;9.77;6.30;;;1.30;99.90;;;;;;4983356;28;20186;-89
2023/02/03 06:01:42;;;;;;;8.90;5.22;;;1.30;99.90;;;;;;4977201;28;20270;-85
2023/02/03 06:04:12;;;;;;;9.23;6.68;;;1.10;99.90;;;;;;4967778;28;20463;-87
2023/02/03 06:06:39;;;;;;;8.82;5.65;;;1.10;99.90;;;;;;4978885;28;20213;-85
2023/02/03 06:09:08;;;;;;;9.70;7.60;;;1.10;99.90;;;;;;4965791;28;20246;-86
2023/02/03 06:11:40;;;;;;;9.18;6.80;;;1.00;99.90;;;;;;4966772;28;20361;-86
2023/02/03 06:14:10;;;;;;;9.45;7.05;;;1.00;99.90;;;;;;4965437;28;20210;-86
2023/02/03 06:16:37;;;;;;;13.85;9.18;;;1.10;99.90;;;;;;4969036;28;20237;-89
2023/02/03 06:19:07;;;;;;;9.35;7.07;;;1.10;99.90;;;;;;4957146;29;20242;-85
2023/02/03 06:21:34;;;;;;;14.30;7.85;;;1.20;99.90;;;;;;4969137;28;20231;-89
2023/02/03 06:24:02;;;;;;;12.32;6.82;;;1.30;99.90;;;;;;4979812;28;20215;-89
2023/02/03 06:26:30;;;;;;;10.60;7.18;;;1.30;99.90;;;;;;4979208;28;20254;-84
2023/02/03 06:28:59;;;;;;;14.07;8.70;;;1.40;99.90;;;;;;4982199;28;20234;-85
2023/02/03 06:31:29;;;;;;;13.98;8.70;;;1.30;99.90;;;;;;4979927;28;20211;-86
2023/02/03 06:34:09;;;;;;;13.00;8.07;;;1.20;99.90;;;;;;4968456;28;20246;-84
2023/02/03 06:36:36;;;;;;;16.25;8.70;;;1.20;99.90;;;;;;4965393;29;20211;-86
2023/02/03 06:39:04;;;;;;;17.83;10.35;;;1.20;99.90;;;;;;4979958;28;20520;-82
2023/02/03 06:41:35;;;;;;;12.05;8.32;;;1.30;99.90;;;;;;4978914;28;20217;-86
2023/02/03 06:44:04;;;;;;;13.63;8.63;;;1.40;99.90;;;;;;4978924;28;20278;-85
2023/02/03 06:46:34;;;;;;;14.05;10.80;;;1.30;99.90;;;;;;4971842;28;20226;-86
2023/02/03 06:49:01;;;;;;;17.17;8.27;;;1.30;99.90;;;;;;4977039;28;20288;-86
2023/02/03 06:51:32;;;;;;;12.10;8.73;;;1.30;99.90;;;;;;4967808;28;20222;-83
2023/02/03 06:53:59;;;;;;;15.02;8.90;;;1.30;99.90;;;;;;4974131;28;20296;-88
2023/02/03 06:56:27;;;;;;;10.52;7.18;;;1.40;99.90;;;;;;4959702;28;20211;-85
2023/02/03 06:58:56;;;;;;;10.93;8.07;;;1.30;99.90;;;;;;4965171;28;20217;-84
2023/02/03 07:01:24;;;;;;;13.57;8.25;;;1.30;99.90;;;;;;4965028;28;20219;-86
2023/02/03 07:03:56;;;;;;;10.98;8.40;;;1.30;99.90;;;;;;4965584;28;20718;-87
2023/02/03 07:06:28;;;;;;;13.13;7.85;;;1.20;99.90;;;;;;4963703;28;20206;-85
2023/02/03 07:08:56;;;;;;;10.70;8.13;;;1.20;99.90;;;;;;4940778;28;20285;-85
2023/02/03 07:11:26;;;;;;;10.90;7.68;;;1.20;99.90;;;;;;4965263;28;20266;-85
2023/02/03 07:13:55;;;;;;;10.88;8.27;;;1.20;99.90;;;;;;4967096;28;20420;-84
2023/02/03 07:16:26;;;;;;;12.73;7.57;;;1.20;99.90;;;;;;4962225;28;20213;-84
2023/02/03 07:18:55;;;;;;;10.35;6.93;;;1.20;99.90;;;;;;4953734;28;20674;-85
2023/02/03 07:21:25;;;;;;;11.90;7.47;;;1.20;99.90;;;;;;4964501;28;20412;-86
2023/02/03 07:23:54;;;;;;;7.05;5.88;;;1.30;99.90;;;;;;4973198;28;20233;-82
2023/02/03 07:26:22;;;;;;;10.70;7.82;;;1.20;99.90;;;;;;4962683;28;20223;-85
2023/02/03 07:28:51;;;;;;;12.68;8.50;;;1.20;99.90;;;;;;4967503;28;20203;-90
2023/02/03 07:31:21;;;;;;;12.63;8.95;;;1.20;99.90;;;;;;4976813;28;20218;-88
2023/02/03 07:33:50;;;;;;;11.30;6.78;;;1.30;99.90;;;;;;4969666;28;20637;-87
2023/02/03 07:36:17;;;;;;;10.55;7.03;;;1.20;99.90;;;;;;4970457;28;20514;-85
2023/02/03 07:38:44;;;;;;;12.75;8.32;;;1.20;99.90;;;;;;4973092;28;20218;-84
2023/02/03 07:41:12;;;;;;;9.25;7.70;;;1.70;99.90;;;;;;4966735;28;20231;-90
2023/02/03 07:43:39;;;;;;;8.75;6.80;;;1.30;99.90;;;;;;4953728;28;20282;-82
2023/02/03 07:46:08;;;;;;;14.25;8.60;;;1.20;99.90;;;;;;4972769;28;20207;-82
2023/02/03 07:48:37;;;;;;;10.48;7.28;;;1.30;99.90;;;;;;4970747;28;20211;-81
2023/02/03 07:51:05;;;;;;;9.75;8.38;;;1.30;99.90;;;;;;4966253;28;20242;-82
2023/02/03 07:53:32;;;;;;;9.73;7.88;;;1.20;99.90;;;;;;4960180;28;20254;-83
2023/02/03 07:56:02;;;;;;;8.88;6.03;;;1.20;99.90;;;;;;4970447;28;20489;-84
2023/02/03 07:58:31;;;;;;;8.55;6.40;;;1.20;99.90;;;;;;4969609;28;20215;-81
2023/02/03 08:00:58;;;;;;;11.48;6.65;;;1.20;99.90;;;;;;4965262;28;20407;-83
2023/02/03 08:03:26;;;;;;;13.98;7.35;;;1.10;99.90;;;;;;4969263;28;20271;-86
2023/02/03 08:05:56;;;;;;;14.63;8.45;;;1.10;99.90;;;;;;4962857;28;20262;-84
2023/02/03 08:08:36;;;;;;;16.48;10.20;;;1.20;99.90;;;;;;4977897;28;20207;-83
2023/02/03 08:11:13;;;;;;;10.52;8.55;;;1.20;99.90;;;;;;4974819;28;20218;-84
2023/02/03 08:13:45;;;;;;;14.63;9.73;;;1.30;99.90;;;;;;4972106;28;20521;-83
2023/02/03 08:16:13;;;;;;;10.02;8.05;;;1.30;99.90;;;;;;4973883;28;20414;-87
2023/02/03 08:18:40;;;;;;;13.43;8.75;;;1.30;99.90;;;;;;4965249;28;20215;-86
2023/02/03 08:21:10;;;;;;;11.43;9.40;;;1.30;99.90;;;;;;4966396;28;20208;-85
2023/02/03 08:23:37;;;;;;;13.63;8.15;;;1.30;99.90;;;;;;4979662;28;20253;-86
2023/02/03 08:26:04;;;;;;;12.60;8.10;;;1.20;99.90;;;;;;4972656;28;20214;-85
2023/02/03 08:28:35;;;;;;;13.18;8.15;;;1.40;99.90;;;;;;4966778;28;20206;-83
2023/02/03 08:31:11;;;;;;;11.80;8.10;;;1.40;99.90;;;;;;4968238;28;20238;-84
2023/02/03 08:33:49;;;;;;;9.07;8.07;;;1.40;99.90;;;;;;4982537;28;20444;-83
2023/02/03 08:36:38;;;;;;;9.80;6.43;;;1.40;99.90;;;;;;4974455;28;20190;-86
2023/02/03 08:39:06;;;;;;;11.15;8.13;;;1.40;99.90;;;;;;4966303;28;20230;-87
2023/02/03 08:41:33;;;;;;;11.48;8.40;;;1.70;99.90;;;;;;4966309;28;20213;-87
2023/02/03 08:44:01;;;;;;;15.95;11.15;;;2.10;99.90;;;;;;4968546;28;20287;-85
2023/02/03 08:46:28;;;;;;;12.20;7.20;;;2.00;99.90;;;;;;4967962;28;20222;-84
2023/02/03 08:48:58;;;;;;;13.95;8.95;;;2.00;99.90;;;;;;4969137;28;20522;-84
2023/02/03 08:51:29;;;;;;;10.38;7.47;;;1.90;99.90;;;;;;4969862;28;20202;-85
2023/02/03 08:53:57;;;;;;;13.25;7.90;;;1.80;99.90;;;;;;4973732;28;20229;-87
2023/02/03 08:56:25;;;;;;;11.48;8.23;;;1.70;99.90;;;;;;4975256;28;20211;-87
2023/02/03 08:58:56;;;;;;;9.85;7.75;;;1.70;99.90;;;;;;4973239;28;20226;-90
2023/02/03 09:01:25;;;;;;;9.32;6.50;;;1.70;99.90;;;;;;4970512;28;20212;-85
2023/02/03 09:06:35;;;;;;;12.27;8.50;;;1.90;99.90;;;;;;5716727;23;20234;-89
2023/02/03 09:09:04;;;;;;;11.10;7.75;;;1.90;99.90;;;;;;4984924;28;20708;-89
2023/02/03 09:11:32;;;;;;;12.25;9.27;;;2.20;99.90;;;;;;4989253;28;20202;-89
2023/02/03 09:13:59;;;;;;;11.18;9.10;;;2.50;99.90;;;;;;4983841;28;20228;-89
2023/02/03 09:16:47;;;;;;;10.60;6.65;;;2.60;99.90;;;;;;4984400;28;20192;-88
2023/02/03 09:19:25;;;;;;;9.60;7.80;;;2.40;99.90;;;;;;5131748;23;20199;-88
2023/02/03 09:27:25;;;;;;;9.63;7.32;;;2.60;99.90;;;;;;5750972;23;20666;-92
2023/02/03 09:29:57;;;;;;;7.65;6.38;;;2.60;99.90;;;;;;5485455;23;20298;-92
2023/02/03 10:31:30;;;;;;;9.82;8.25;;;3.40;99.90;;;;;;4967629;29;20276;-84
2023/02/03 10:41:40;;;;;;;10.48;7.05;;;3.50;99.90;;;;;;4967587;29;20170;-85
2023/02/03 10:52:40;;;;;;;9.93;6.90;;;3.40;99.90;;;;;;4968412;29;20189;-85
2023/02/03 10:55:26;;;;;;;18.23;10.65;;;3.50;99.90;;;;;;4967384;28;20233;-85
2023/02/03 10:57:54;;;;;;;16.02;8.90;;;3.80;99.90;;;;;;4979780;28;20548;-86
2023/02/03 11:00:33;;;;;;;11.82;8.55;;;3.80;99.90;;;;;;4965386;29;20311;-86
2023/02/03 11:03:20;;;;;;;20.13;9.48;;;4.00;99.90;;;;;;4965813;29;20189;-86
2023/02/03 11:06:13;;;;;;;15.48;9.55;;;3.80;99.90;;;;;;4967039;28;20236;-85
2023/02/03 11:08:49;;;;;;;16.65;8.93;;;3.80;99.90;;;;;;4969852;28;20249;-84
2023/02/03 11:11:40;;;;;;;14.25;9.20;;;3.90;99.90;;;;;;4976090;29;20240;-85
2023/02/03 11:15:01;;;;;;;17.05;9.25;;;3.90;99.90;;;;;;4990501;28;20198;-87
2023/02/03 11:17:31;;;;;;;11.50;8.80;;;3.80;99.90;;;;;;4994986;28;20217;-87
2023/02/03 11:20:16;;;;;;;11.40;8.00;;;3.90;99.90;;;;;;4987570;28;20194;-86
2023/02/03 11:22:44;;;;;;;9.32;7.60;;;3.80;99.90;;;;;;4981398;28;20239;-85
2023/02/03 11:29:07;;;;;;;15.00;7.28;;;3.90;99.90;;;;;;4974886;28;20244;-86
2023/02/03 11:31:37;;;;;;;8.52;6.13;;;4.00;99.90;;;;;;4983880;28;20239;-85
2023/02/03 11:34:14;;;;;;;7.80;6.22;;;4.10;99.90;;;;;;4966335;29;20196;-85
2023/02/03 11:36:42;;;;;;;7.22;5.63;;;4.20;99.90;;;;;;4968589;28;20269;-86
2023/02/03 11:39:25;;;;;;;7.00;5.32;;;4.10;99.90;;;;;;4986374;28;20213;-85
2023/02/03 11:41:52;;;;;;;9.55;6.30;;;4.10;99.90;;;;;;4985822;28;20231;-85
2023/02/03 11:44:29;;;;;;;9.82;5.35;;;4.10;99.90;;;;;;4980927;28;20245;-86
2023/02/03 11:47:02;;;;;;;5.90;4.80;;;4.00;99.90;;;;;;4964934;29;20193;-85
2023/02/03 11:49:50;;;;;;;9.30;5.22;;;4.10;99.90;;;;;;4966279;29;20194;-84
2023/02/03 11:52:47;;;;;;;6.45;4.97;;;4.30;99.90;;;;;;4966715;29;20303;-84
2023/02/03 11:59:14;;;;;;;6.90;5.20;;;4.50;99.90;;;;;;4955831;29;20229;-86
2023/02/03 12:02:06;;;;;;;9.35;6.18;;;4.50;99.90;;;;;;4976741;28;20524;-86
2023/02/03 12:05:05;;;;;;;6.82;4.60;;;4.50;99.90;;;;;;4969936;28;20222;-84
2023/02/03 12:07:45;;;;;;;12.50;9.07;;;4.50;99.90;;;;;;4968793;28;20437;-87
2023/02/03 12:10:28;;;;;;;7.00;4.00;;;4.50;99.90;;;;;;4949110;28;20293;-87
2023/02/03 12:13:15;;;;;;;9.98;4.68;;;4.60;99.90;;;;;;4962151;28;20217;-89
2023/02/03 12:16:07;;;;;;;14.02;3.83;;;4.70;99.90;;;;;;4968486;28;20206;-86
2023/02/03 12:18:55;;;;;;;4.07;2.72;;;4.70;99.90;;;;;;4971810;28;20558;-86
2023/02/03 12:21:28;;;;;;;6.50;4.20;;;4.80;99.90;;;;;;4965014;28;20225;-88
2023/02/03 12:24:18;;;;;;;4.45;3.88;;;4.90;99.90;;;;;;4974120;28;20206;-88
2023/02/03 12:26:53;;;;;;;7.18;4.28;;;4.90;99.90;;;;;;4961019;28;20230;-84
2023/02/03 12:29:47;;;;;;;2.88;2.15;;;5.10;99.90;;;;;;4960271;28;20459;-87
2023/02/03 12:32:35;;;;;;;3.80;2.22;;;5.30;99.90;;;;;;4956190;28;20206;-86
2023/02/03 12:35:12;;;;;;;3.83;2.95;;;5.30;99.90;;;;;;4958534;29;20237;-85
2023/02/03 12:37:43;;;;;;;4.15;2.97;;;5.40;99.90;;;;;;4961772;29;20225;-88
2023/02/03 12:40:32;;;;;;;2.83;2.47;;;5.50;99.90;;;;;;4967525;28;20453;-88
2023/02/03 12:43:15;;;;;;;5.50;2.75;;;5.70;99.90;;;;;;4963198;28;20210;-89
2023/02/03 12:45:53;;;;;;;2.47;1.75;;;5.80;99.90;;;;;;4974602;28;20524;-88
2023/02/03 12:48:32;;;;;;;2.47;2.28;;;5.90;99.90;;;;;;4970859;28;20201;-88
2023/02/03 12:51:09;;;;;;;2.50;1.90;;;6.00;99.90;;;;;;4968273;28;20270;-88
2023/02/03 12:53:42;;;;;;;3.03;1.90;;;5.90;99.90;;;;;;4959495;29;20246;-86
2023/02/03 12:56:25;;;;;;;5.20;2.30;;;5.90;99.90;;;;;;4967789;28;20274;-86
2023/02/03 12:59:03;;;;;;;1.50;1.40;;;5.90;99.90;;;;;;4963730;28;20202;-87
2023/02/03 13:01:39;;;;;;;1.90;1.65;;;5.90;99.90;;;;;;4953150;28;20203;-86
2023/02/03 13:04:37;;;;;;;1.73;1.63;;;6.00;99.90;;;;;;4960506;28;20261;-87
2023/02/03 13:07:26;;;;;;;2.67;2.42;;;6.00;99.90;;;;;;4955741;28;20636;-84
2023/02/03 13:10:05;;;;;;;3.25;1.73;;;6.00;99.90;;;;;;4962869;28;20230;-86
2023/02/03 13:12:40;;;;;;;2.40;1.80;;;5.90;99.90;;;;;;4971138;28;20306;-83
2023/02/03 13:15:34;;;;;;;2.05;1.85;;;5.80;99.90;;;;;;4965586;28;20525;-86
2023/02/03 13:18:08;;;;;;;4.40;3.10;;;5.70;99.90;;;;;;4966830;28;20353;-86
2023/02/03 13:20:36;;;;;;;2.85;2.38;;;5.60;99.90;;;;;;4970158;28;20211;-85
2023/02/03 13:23:09;;;;;;;2.17;1.63;;;5.60;99.90;;;;;;4972248;28;20278;-86
2023/02/03 13:26:04;;;;;;;2.45;1.92;;;5.70;99.90;;;;;;4945144;28;20258;-82
2023/02/03 13:28:39;;;;;;;3.72;2.42;;;5.70;99.90;;;;;;4964788;28;20470;-83
2023/02/03 13:31:24;;;;;;;2.22;1.80;;;5.80;99.90;;;;;;4968212;28;20213;-86
2023/02/03 13:34:13;;;;;;;2.78;1.50;;;5.90;99.90;;;;;;4967989;28;20210;-84
2023/02/03 13:37:08;;;;;;;3.10;2.30;;;5.90;99.90;;;;;;4966504;28;20271;-85
2023/02/03 13:40:01;;;;;;;3.50;1.90;;;6.10;99.90;;;;;;4968172;28;20211;-82
2023/02/03 13:42:36;;;;;;;3.17;2.90;;;6.00;99.90;;;;;;4954547;28;20428;-86
2023/02/03 13:45:22;;;;;;;3.00;2.28;;;6.00;99.90;;;;;;4972204;28;20248;-82
2023/02/03 13:47:59;;;;;;;1.33;1.20;;;5.90;99.90;;;;;;4968353;28;20428;-86
2023/02/03 13:50:31;;;;;;;3.28;1.50;;;6.00;99.90;;;;;;4977244;28;20289;-85
2023/02/03 13:53:25;;;;;;;3.53;2.67;;;6.10;99.90;;;;;;4975625;28;20250;-85
2023/02/03 13:56:02;;;;;;;2.45;1.63;;;6.10;99.90;;;;;;4962501;28;20218;-86
2023/02/03 13:58:33;;;;;;;4.05;2.20;;;6.10;99.90;;;;;;4959721;28;20202;-84
2023/02/03 14:01:02;;;;;;;2.90;1.85;;;6.30;99.90;;;;;;4964820;28;20514;-85
2023/02/03 14:03:29;;;;;;;3.75;1.92;;;6.20;99.90;;;;;;4957535;28;20202;-82
2023/02/03 14:05:59;;;;;;;2.15;1.80;;;6.20;99.90;;;;;;4983856;28;20454;-82
2023/02/03 14:08:26;;;;;;;1.50;1.40;;;6.30;99.90;;;;;;4970978;28;20246;-84
2023/02/03 14:11:31;;;;;;;2.40;2.13;;;6.30;99.90;;;;;;4978400;28;20226;-85
2023/02/03 14:14:06;;;;;;;6.88;2.08;;;6.30;99.90;;;;;;4955034;29;20213;-84
2023/02/03 14:16:47;;;;;;;2.70;1.85;;;6.30;99.90;;;;;;4955859;28;20265;-81
2023/02/03 14:19:30;;;;;;;4.43;2.58;;;6.30;99.90;;;;;;4973188;28;20230;-83
2023/02/03 14:21:59;;;;;;;2.90;1.67;;;6.30;99.90;;;;;;4972364;28;20212;-81
2023/02/03 14:24:40;;;;;;;3.42;2.65;;;6.30;99.90;;;;;;4973917;28;20265;-82
2023/02/03 14:27:19;;;;;;;6.15;2.10;;;6.20;99.90;;;;;;4962771;28;20230;-81
2023/02/03 14:30:01;;;;;;;3.00;2.25;;;6.10;99.90;;;;;;4969498;28;20226;-82
2023/02/03 14:32:51;;;;;;;3.15;1.70;;;6.20;99.90;;;;;;4976644;28;20198;-84
2023/02/03 14:35:22;;;;;;;2.05;1.30;;;6.10;99.90;;;;;;4969495;28;20218;-82
2023/02/03 14:37:53;;;;;;;3.40;1.77;;;6.00;99.90;;;;;;4958742;28;20540;-82
2023/02/03 14:40:33;;;;;;;9.55;1.67;;;6.00;99.90;;;;;;4964245;28;20420;-81
2023/02/03 14:43:38;;;;;;;17.08;3.60;;;6.00;99.90;;;;;;4959484;28;20214;-81
2023/02/03 14:46:14;;;;;;;5.07;1.95;;;6.00;99.90;;;;;;4968630;28;20601;-83
2023/02/03 14:48:47;;;;;;;2.60;1.63;;;6.00;99.90;;;;;;4963114;28;20210;-82
2023/02/03 14:51:45;;;;;;;4.43;2.05;;;5.90;99.90;;;;;;4950577;28;20274;-82
2023/02/03 14:54:50;;;;;;;4.93;2.72;;;5.90;99.90;;;;;;4960291;28;20293;-84
2023/02/03 14:57:47;;;;;;;6.63;2.28;;;5.90;99.90;;;;;;4961832;28;20211;-82
2023/02/03 15:00:21;;;;;;;4.18;1.40;;;5.80;99.90;;;;;;4962109;28;20234;-83